Time;durP1;ratioP1;P1;durP2;ratioP2;P2;SDS_P1;SDS_P2;PMS_P1;PMS_P2;Temp;Humidity;BMP_temperature;BMP_pressure;BME280_temperature;BME280_humidity;BME280_pressure;Samples;Min_cycle;Max_cycle;Signal;HPM_P1;HPM_P2
2023/06/16 00:00:11;;;;;;;;;24.25;21.75;;;;;26.76;27.62;101216.47;5019763;28;49422;-66
2023/06/16 00:02:41;;;;;;;;;22.75;20.00;;;;;26.74;27.44;101215.75;5010332;28;45387;-67
2023/06/16 00:05:08;;;;;;;;;21.50;21.00;;;;;26.71;27.52;101218.63;5018628;28;45332;-66
2023/06/16 00:07:34;;;;;;;;;22.50;21.00;;;;;26.67;28.09;101211.75;5020955;28;45694;-66
2023/06/16 00:10:00;;;;;;;;;16.00;15.00;;;;;26.66;28.08;101211.88;5019593;28;45424;-66
2023/06/16 00:12:25;;;;;;;;;22.00;20.75;;;;;26.63;27.95;101214.78;5019625;28;45309;-66
2023/06/16 00:14:51;;;;;;;;;24.75;24.00;;;;;26.60;28.35;101219.44;5019568;28;45577;-65
2023/06/16 00:17:16;;;;;;;;;22.00;22.00;;;;;26.56;28.09;101217.94;5018427;28;45408;-66
2023/06/16 00:19:41;;;;;;;;;28.25;24.25;;;;;26.51;28.46;101217.41;5019672;28;45488;-66
2023/06/16 00:22:07;;;;;;;;;24.75;23.50;;;;;26.51;27.94;101221.97;5019961;28;45241;-66
2023/06/16 00:24:33;;;;;;;;;25.50;22.50;;;;;26.48;27.96;101223.06;5019244;28;45776;-65
2023/06/16 00:26:58;;;;;;;;;25.75;24.25;;;;;26.45;28.29;101215.19;5017323;28;45420;-65
2023/06/16 00:29:23;;;;;;;;;27.25;26.00;;;;;26.41;28.42;101228.03;5015099;28;45515;-65
2023/06/16 00:31:49;;;;;;;;;22.25;21.00;;;;;26.41;27.90;101222.66;5014818;28;45462;-65
2023/06/16 00:34:15;;;;;;;;;21.00;19.25;;;;;26.38;28.28;101211.25;5016520;28;45419;-65
2023/06/16 00:36:40;;;;;;;;;27.00;22.50;;;;;26.36;28.25;101210.47;5014419;28;45667;-65
2023/06/16 00:39:05;;;;;;;;;21.75;21.00;;;;;26.26;28.13;101197.69;5016681;28;46169;-65
2023/06/16 00:41:31;;;;;;;;;24.50;23.50;;;;;26.31;28.72;101216.19;5021322;28;46087;-64
2023/06/16 00:43:56;;;;;;;;;20.00;19.00;;;;;26.30;28.26;101210.94;5025813;28;45402;-65
2023/06/16 00:46:27;;;;;;;;;20.25;20.25;;;;;26.26;28.24;101210.28;5022726;28;45315;-65
2023/06/16 00:48:54;;;;;;;;;24.25;22.00;;;;;26.22;28.27;101206.97;5022559;28;45561;-65
2023/06/16 00:51:20;;;;;;;;;23.75;20.75;;;;;26.21;28.98;101207.06;5020040;28;45388;-65
2023/06/16 00:53:46;;;;;;;;;24.25;20.25;;;;;26.18;28.88;101218.94;5022560;28;45459;-66
2023/06/16 00:56:12;;;;;;;;;27.75;23.25;;;;;26.14;28.71;101206.69;5022486;28;45299;-65
2023/06/16 00:58:37;;;;;;;;;25.50;23.75;;;;;26.13;28.63;101213.03;5025037;28;45450;-64
2023/06/16 01:01:03;;;;;;;;;25.25;22.50;;;;;26.10;28.52;101210.53;5019691;28;45587;-64
2023/06/16 01:03:29;;;;;;;;;21.00;20.75;;;;;26.07;29.29;101214.31;5018534;28;45517;-64
2023/06/16 01:06:00;;;;;;;;;27.50;25.25;;;;;26.04;29.36;101206.44;5023596;28;45498;-64
2023/06/16 01:08:38;;;;;;;;;23.00;21.00;;;;;26.01;28.92;101205.81;5024562;28;46932;-64
2023/06/16 01:11:13;;;;;;;;;22.00;21.25;;;;;25.99;29.35;101214.00;5025498;28;45413;-65
2023/06/16 01:14:07;;;;;;;;;21.00;18.50;;;;;25.96;28.90;101220.47;5025796;28;45241;-66
2023/06/16 01:16:35;;;;;;;;;20.50;19.50;;;;;25.92;29.36;101210.91;5023450;28;45519;-65
2023/06/16 01:19:19;;;;;;;;;23.25;21.50;;;;;25.91;28.79;101211.88;5005720;28;47588;-66
2023/06/16 01:22:03;;;;;;;;;18.50;17.75;;;;;25.87;28.95;101206.81;5005569;28;45182;-66
2023/06/16 01:24:32;;;;;;;;;20.75;18.25;;;;;25.84;29.04;101207.03;5002072;28;45206;-66
2023/06/16 01:26:59;;;;;;;;;21.00;20.25;;;;;25.81;28.95;101205.44;5005419;28;45499;-66
2023/06/16 01:29:27;;;;;;;;;20.50;18.50;;;;;25.79;28.89;101210.03;5005416;28;45406;-66
2023/06/16 01:31:59;;;;;;;;;19.50;18.25;;;;;25.75;29.68;101206.72;5005719;28;45348;-66
2023/06/16 01:34:26;;;;;;;;;20.50;20.50;;;;;25.74;29.07;101206.81;5005714;28;45266;-66
2023/06/16 01:36:54;;;;;;;;;20.75;20.75;;;;;25.70;29.42;101205.31;5017956;28;45531;-67
2023/06/16 01:39:21;;;;;;;;;20.00;19.00;;;;;25.66;29.31;101203.81;4991238;28;46282;-67
2023/06/16 01:41:47;;;;;;;;;22.00;21.00;;;;;25.64;29.76;101210.16;5005551;28;45298;-67
2023/06/16 01:44:12;;;;;;;;;22.25;21.25;;;;;25.62;29.20;101209.41;5005609;28;45249;-67
2023/06/16 01:46:39;;;;;;;;;18.50;17.25;;;;;25.59;29.33;101204.22;5005667;28;45325;-67
2023/06/16 01:49:05;;;;;;;;;20.25;17.25;;;;;25.57;29.55;101206.19;5005492;28;45498;-68
2023/06/16 01:51:31;;;;;;;;;21.25;19.50;;;;;25.54;29.85;101201.00;5004340;28;45985;-67
2023/06/16 01:53:56;;;;;;;;;21.75;20.50;;;;;25.52;29.77;101200.28;5016936;28;45284;-68
2023/06/16 01:56:22;;;;;;;;;18.50;18.50;;;;;25.50;29.53;101201.31;5002079;28;45483;-67
2023/06/16 01:58:47;;;;;;;;;24.75;20.25;;;;;25.47;29.45;101205.97;5002175;28;46399;-68
2023/06/16 02:01:30;;;;;;;;;27.75;21.50;;;;;25.44;29.74;101210.69;4997150;28;45278;-68
2023/06/16 02:04:14;;;;;;;;;20.00;18.00;;;;;25.43;29.82;101206.28;5000854;28;45396;-68
2023/06/16 02:06:47;;;;;;;;;21.75;18.00;;;;;25.39;29.71;101210.16;5001739;28;45574;-68
2023/06/16 02:09:16;;;;;;;;;19.25;18.00;;;;;25.36;29.86;101210.31;5002161;28;45426;-67
2023/06/16 02:11:43;;;;;;;;;23.75;20.75;;;;;25.34;29.75;101209.59;4998703;28;45296;-67
2023/06/16 02:14:09;;;;;;;;;20.25;20.00;;;;;25.30;30.18;101209.78;4992019;28;45253;-67
2023/06/16 02:16:39;;;;;;;;;25.25;22.50;;;;;25.27;29.76;101212.69;5016161;28;45412;-64
2023/06/16 02:19:05;;;;;;;;;20.75;20.75;;;;;25.21;30.18;101210.44;5021865;28;47101;-64
2023/06/16 02:21:31;;;;;;;;;17.25;16.00;;;;;25.20;30.06;101208.72;5021623;28;45241;-64
2023/06/16 02:23:57;;;;;;;;;18.75;18.75;;;;;25.17;30.20;101210.75;5021576;28;45443;-65
2023/06/16 02:26:22;;;;;;;;;16.50;16.50;;;;;25.14;29.95;101210.00;5021272;28;45424;-64
2023/06/16 02:28:48;;;;;;;;;20.00;18.00;;;;;25.08;30.18;101207.75;5021578;28;51577;-63
2023/06/16 02:31:17;;;;;;;;;21.25;19.25;;;;;25.07;30.57;101214.06;5021497;28;45525;-63
2023/06/16 02:33:43;;;;;;;;;21.50;21.00;;;;;25.02;30.09;101212.66;5021617;28;45347;-64
2023/06/16 02:36:09;;;;;;;;;18.50;18.50;;;;;24.98;30.71;101218.25;5036478;28;45545;-63
2023/06/16 02:38:35;;;;;;;;;23.50;19.25;;;;;24.95;30.52;101207.69;5012592;28;46114;-64
2023/06/16 02:41:00;;;;;;;;;19.00;16.75;;;;;24.93;30.51;101212.31;5016701;28;45448;-64
2023/06/16 02:43:25;;;;;;;;;16.25;16.25;;;;;24.91;30.52;101203.50;5021725;28;45546;-65
2023/06/16 02:45:51;;;;;;;;;18.25;17.50;;;;;24.86;30.57;101202.94;5021294;28;47364;-66
2023/06/16 02:48:16;;;;;;;;;17.75;16.00;;;;;24.87;30.28;101214.53;5021525;28;46054;-64
2023/06/16 02:50:41;;;;;;;;;20.25;17.25;;;;;24.83;30.57;101204.00;5021083;28;45389;-63
2023/06/16 02:53:08;;;;;;;;;18.00;17.00;;;;;24.80;30.65;101208.72;5021560;28;45294;-63
2023/06/16 02:55:35;;;;;;;;;21.00;19.25;;;;;24.78;30.60;101207.97;5021373;28;46716;-63
2023/06/16 02:58:00;;;;;;;;;17.25;15.75;;;;;24.74;30.99;101201.06;5020892;28;47012;-66
2023/06/16 03:00:25;;;;;;;;;18.00;16.50;;;;;24.72;30.64;101201.19;5021141;28;45427;-66
2023/06/16 03:02:51;;;;;;;;;17.50;14.00;;;;;24.71;30.74;101204.84;5012447;28;45427;-65
2023/06/16 03:05:18;;;;;;;;;17.00;17.00;;;;;24.69;30.62;101200.53;5019736;28;45388;-66
2023/06/16 03:07:44;;;;;;;;;18.00;15.25;;;;;24.67;30.70;101200.63;5020029;28;46151;-66
2023/06/16 03:10:10;;;;;;;;;17.75;16.75;;;;;24.65;30.81;101200.75;5020995;28;45301;-65
2023/06/16 03:12:36;;;;;;;;;15.25;14.00;;;;;24.64;30.79;101199.00;5021003;28;45238;-66
2023/06/16 03:15:01;;;;;;;;;19.00;18.00;;;;;24.62;30.81;101203.59;5020431;28;45383;-65
2023/06/16 03:17:27;;;;;;;;;13.75;13.00;;;;;24.60;31.10;101194.78;5020890;28;46010;-63
2023/06/16 03:19:52;;;;;;;;;16.50;14.00;;;;;24.58;30.78;101199.38;5020769;28;45298;-63
2023/06/16 03:22:17;;;;;;;;;15.00;14.25;;;;;24.57;30.69;101202.19;5021132;28;45318;-63
2023/06/16 03:24:44;;;;;;;;;15.00;14.50;;;;;24.54;30.92;101197.00;5020656;28;45166;-64
2023/06/16 03:27:10;;;;;;;;;16.25;15.75;;;;;24.50;31.17;101196.34;5035762;28;47055;-63
2023/06/16 03:29:36;;;;;;;;;17.50;16.50;;;;;24.51;31.04;101203.44;5036005;28;45466;-63
2023/06/16 03:32:05;;;;;;;;;18.00;15.00;;;;;24.50;30.84;101199.03;5020785;28;45464;-64
2023/06/16 03:34:31;;;;;;;;;24.00;20.25;;;;;24.49;30.99;101208.06;5020768;28;45263;-63
2023/06/16 03:36:57;;;;;;;;;18.75;18.00;;;;;24.46;31.02;101210.94;5020443;28;45290;-63
2023/06/16 03:39:23;;;;;;;;;17.25;16.75;;;;;24.45;30.66;101209.22;5007010;28;45243;-63
2023/06/16 03:41:48;;;;;;;;;17.75;16.00;;;;;24.42;30.75;101215.66;5020430;28;45242;-64
2023/06/16 03:44:14;;;;;;;;;20.25;17.00;;;;;24.40;30.97;101214.91;5020280;28;45424;-65
2023/06/16 03:46:39;;;;;;;;;18.50;18.00;;;;;24.35;31.20;101211.63;5020447;28;46588;-65
2023/06/16 03:49:07;;;;;;;;;20.75;18.50;;;;;24.34;31.08;101213.47;5019075;28;45247;-64
2023/06/16 03:51:33;;;;;;;;;18.00;18.00;;;;;24.34;31.02;101216.16;5020567;28;45356;-64
2023/06/16 03:53:59;;;;;;;;;16.25;15.25;;;;;24.33;31.38;101217.09;5020092;28;45514;-63
2023/06/16 03:56:24;;;;;;;;;15.00;15.00;;;;;24.32;31.32;101215.38;5019978;28;45396;-64
2023/06/16 03:58:49;;;;;;;;;17.00;16.25;;;;;24.33;31.08;101214.41;5035453;28;45475;-63
2023/06/16 04:01:16;;;;;;;;;16.50;16.50;;;;;24.32;31.44;101210.00;5015009;28;45415;-65
2023/06/16 04:03:41;;;;;;;;;16.50;16.00;;;;;24.30;31.26;101214.63;5016194;28;45460;-65
2023/06/16 04:06:06;;;;;;;;;15.75;14.75;;;;;24.27;31.39;101212.13;5019928;28;46283;-66
2023/06/16 04:08:32;;;;;;;;;17.50;16.50;;;;;24.25;31.68;101211.38;5018714;28;45344;-65
2023/06/16 04:10:58;;;;;;;;;13.50;13.50;;;;;24.24;31.17;101212.34;5020077;28;45341;-65
2023/06/16 04:13:26;;;;;;;;;12.00;10.75;;;;;24.23;31.48;101215.13;5020033;28;45501;-64
2023/06/16 04:15:52;;;;;;;;;16.00;15.75;;;;;24.20;31.93;101213.50;5034415;28;47141;-63
2023/06/16 04:18:17;;;;;;;;;14.00;14.00;;;;;24.22;31.53;101218.78;5019924;28;45269;-63
2023/06/16 04:20:42;;;;;;;;;16.25;15.25;;;;;24.20;31.58;101215.31;5019988;28;45288;-65
2023/06/16 04:23:09;;;;;;;;;14.25;12.00;;;;;24.20;31.28;101215.31;5019834;28;45378;-66
2023/06/16 04:25:38;;;;;;;;;19.25;17.00;;;;;24.18;31.45;101218.94;5018586;28;46873;-66
2023/06/16 04:28:04;;;;;;;;;16.25;16.00;;;;;24.18;31.52;101223.47;5004975;28;45746;-64
2023/06/16 04:30:33;;;;;;;;;14.25;14.00;;;;;24.16;31.59;101231.63;5009191;28;45274;-64
2023/06/16 04:33:01;;;;;;;;;14.00;13.75;;;;;24.18;31.37;101231.53;5017361;28;46403;-64
2023/06/16 04:35:33;;;;;;;;;11.50;11.00;;;;;24.17;31.94;101238.69;5019558;28;46205;-64
2023/06/16 04:37:59;;;;;;;;;17.00;16.00;;;;;24.17;31.59;101237.84;5015168;28;46265;-65
2023/06/16 04:40:25;;;;;;;;;15.00;15.00;;;;;24.16;31.49;101236.13;5010569;28;45584;-64
2023/06/16 04:42:51;;;;;;;;;16.50;16.00;;;;;24.15;31.42;101229.03;5019216;28;45443;-65
2023/06/16 04:45:17;;;;;;;;;12.75;11.25;;;;;24.11;31.72;101231.06;5019555;28;46011;-65
2023/06/16 04:47:43;;;;;;;;;17.50;17.50;;;;;24.09;31.91;101229.44;5019462;28;45322;-65
2023/06/16 04:50:10;;;;;;;;;15.00;14.00;;;;;24.11;31.51;101239.13;5019606;28;45272;-65
2023/06/16 04:52:36;;;;;;;;;15.75;15.75;;;;;24.09;31.60;101232.13;5019224;28;45240;-65
2023/06/16 04:55:04;;;;;;;;;11.75;11.00;;;;;24.09;31.58;101235.66;5019347;28;45412;-65
2023/06/16 04:57:31;;;;;;;;;17.00;15.50;;;;;24.08;31.82;101236.63;5019001;28;45304;-65
2023/06/16 04:59:57;;;;;;;;;18.50;18.50;;;;;24.08;32.12;101233.09;5019744;28;45237;-65
2023/06/16 05:02:22;;;;;;;;;16.75;16.75;;;;;24.06;31.85;101235.00;5024463;28;45238;-65
2023/06/16 05:04:48;;;;;;;;;15.00;14.00;;;;;24.06;31.88;101235.84;5019195;28;46288;-65
2023/06/16 05:07:13;;;;;;;;;19.50;16.25;;;;;24.04;31.96;101224.34;5019121;28;45446;-65
2023/06/16 05:09:39;;;;;;;;;11.50;10.50;;;;;24.02;31.85;101224.47;5019686;28;45258;-66
2023/06/16 05:12:08;;;;;;;;;18.25;16.00;;;;;24.03;32.01;101225.31;5017471;28;45329;-65
2023/06/16 05:14:33;;;;;;;;;18.25;17.25;;;;;24.00;32.02;101223.69;5017833;28;48525;-66
2023/06/16 05:17:00;;;;;;;;;19.00;16.00;;;;;24.00;32.17;101225.50;5014086;28;45348;-65
2023/06/16 05:19:25;;;;;;;;;14.00;13.75;;;;;23.96;32.13;101227.53;5011863;28;45339;-66
2023/06/16 05:21:51;;;;;;;;;17.00;17.00;;;;;23.97;32.21;101228.38;5018939;28;45516;-66
2023/06/16 05:24:16;;;;;;;;;15.25;13.25;;;;;23.97;32.39;101226.53;5018988;28;45422;-66
2023/06/16 05:26:41;;;;;;;;;15.00;15.00;;;;;23.97;32.08;101226.53;5018814;28;45216;-66
2023/06/16 05:29:06;;;;;;;;;18.25;16.00;;;;;23.99;32.26;101223.78;5021986;28;45265;-66
2023/06/16 05:31:33;;;;;;;;;14.50;14.00;;;;;23.98;32.16;101228.28;5022362;28;45310;-66
2023/06/16 05:33:58;;;;;;;;;17.00;14.25;;;;;23.97;32.27;101226.53;5022375;28;45313;-65
2023/06/16 05:36:29;;;;;;;;;16.75;16.00;;;;;24.00;32.21;101226.38;5022277;28;45446;-69
2023/06/16 05:38:54;;;;;;;;;17.50;17.00;;;;;23.99;32.09;101224.63;5010978;28;45408;-66
2023/06/16 05:41:23;;;;;;;;;15.75;15.75;;;;;23.99;32.15;101219.28;5020021;28;45382;-66
2023/06/16 05:43:51;;;;;;;;;17.25;15.75;;;;;24.03;32.41;101236.03;5022159;28;47211;-61
2023/06/16 05:46:16;;;;;;;;;13.25;13.25;;;;;24.05;32.37;101227.88;5022005;28;45518;-64
2023/06/16 05:48:41;;;;;;;;;15.50;14.75;;;;;24.06;32.57;101230.47;5020813;28;45359;-63
2023/06/16 05:51:07;;;;;;;;;14.00;14.00;;;;;24.08;32.16;101220.50;5021955;28;45273;-63
2023/06/16 05:53:32;;;;;;;;;12.75;12.25;;;;;24.09;32.40;101230.28;5022175;28;45329;-62
2023/06/16 05:55:57;;;;;;;;;17.75;15.25;;;;;24.10;32.53;101225.78;5021784;28;45370;-63
2023/06/16 05:58:23;;;;;;;;;15.00;14.00;;;;;24.13;32.36;101228.28;5021886;28;53079;-61
2023/06/16 06:00:48;;;;;;;;;15.75;15.75;;;;;24.16;32.22;101220.00;5019942;28;45316;-62
2023/06/16 06:03:13;;;;;;;;;17.00;16.25;;;;;24.18;32.21;101223.47;5014201;28;45451;-65
2023/06/16 06:05:39;;;;;;;;;14.75;13.75;;;;;24.19;32.86;101227.88;5020543;28;45342;-60
2023/06/16 06:08:04;;;;;;;;;17.00;16.25;;;;;24.22;32.59;101235.72;5022258;28;45304;-66
2023/06/16 06:10:30;;;;;;;;;14.00;13.25;;;;;24.26;32.50;101233.72;5021778;28;45448;-62
2023/06/16 06:12:55;;;;;;;;;14.25;13.25;;;;;24.26;32.57;101237.25;5021483;28;48737;-68
2023/06/16 06:15:20;;;;;;;;;18.00;15.00;;;;;24.29;32.61;101238.91;5021093;28;45414;-63
2023/06/16 06:17:46;;;;;;;;;17.00;15.25;;;;;24.31;32.52;101227.09;5022051;28;45347;-68
2023/06/16 06:20:11;;;;;;;;;16.25;14.50;;;;;24.34;32.50;101234.94;5021882;28;45578;-74
2023/06/16 06:22:36;;;;;;;;;17.50;16.00;;;;;24.37;32.58;101231.19;5021833;28;45248;-73
2023/06/16 06:25:04;;;;;;;;;19.50;16.75;;;;;24.40;32.34;101239.06;5021401;28;45349;-71
2023/06/16 06:27:29;;;;;;;;;16.50;15.50;;;;;24.44;32.40;101231.66;5021761;28;45430;-72
2023/06/16 06:29:55;;;;;;;;;14.50;14.50;;;;;24.47;32.73;101244.91;5016807;28;48866;-72
2023/06/16 06:32:20;;;;;;;;;15.75;13.00;;;;;24.50;32.59;101236.63;5013613;28;46844;-73
2023/06/16 06:34:45;;;;;;;;;20.25;13.75;;;;;24.52;32.83;101242.78;5021413;28;45311;-73
2023/06/16 06:37:16;;;;;;;;;15.50;15.50;;;;;24.54;32.28;101242.66;5021585;28;45456;-73
2023/06/16 06:39:41;;;;;;;;;15.75;15.75;;;;;24.59;32.45;101249.47;5008017;28;45336;-73
2023/06/16 06:42:07;;;;;;;;;19.25;17.00;;;;;24.62;32.39;101248.41;5021092;28;46096;-72
2023/06/16 06:44:32;;;;;;;;;14.50;14.50;;;;;24.63;32.55;101256.34;5021279;28;46042;-73
2023/06/16 06:46:58;;;;;;;;;17.00;16.50;;;;;24.66;32.42;101256.19;5021534;28;45236;-72
2023/06/16 06:49:23;;;;;;;;;12.75;12.75;;;;;24.70;32.63;101261.38;5021440;28;45337;-73
2023/06/16 06:51:50;;;;;;;;;16.00;13.75;;;;;24.72;32.64;101264.81;5009539;28;45826;-73
2023/06/16 06:54:15;;;;;;;;;16.00;14.75;;;;;24.75;32.33;101264.59;5019759;28;45345;-73
2023/06/16 06:56:41;;;;;;;;;15.50;14.25;;;;;24.76;32.66;101269.03;5020990;28;45450;-72
2023/06/16 06:59:06;;;;;;;;;18.25;16.00;;;;;24.78;32.34;101269.75;5021169;28;45451;-73
2023/06/16 07:01:31;;;;;;;;;15.00;13.00;;;;;24.79;32.15;101276.88;5013579;28;45384;-72
2023/06/16 07:03:57;;;;;;;;;11.25;11.25;;;;;24.77;32.32;101276.97;5018425;28;45262;-72
2023/06/16 07:06:22;;;;;;;;;18.25;15.00;;;;;24.79;32.48;101279.56;5021459;28;45264;-72
2023/06/16 07:08:47;;;;;;;;;16.25;15.00;;;;;24.81;32.16;101283.88;5020804;28;45328;-72
2023/06/16 07:11:13;;;;;;;;;16.50;15.50;;;;;24.83;32.74;101281.09;5019338;28;50187;-72
2023/06/16 07:13:38;;;;;;;;;16.25;14.00;;;;;24.87;32.40;101293.38;5021075;28;45414;-72
2023/06/16 07:16:04;;;;;;;;;15.00;14.00;;;;;24.86;32.25;101286.25;5021074;28;45353;-72
2023/06/16 07:18:29;;;;;;;;;14.50;13.75;;;;;24.90;32.63;101293.16;5020903;28;45539;-72
2023/06/16 07:20:54;;;;;;;;;17.50;17.50;;;;;24.93;32.87;101297.47;5020962;28;46217;-72
2023/06/16 07:23:20;;;;;;;;;16.00;13.25;;;;;24.98;32.86;101298.00;5020675;28;45396;-72
2023/06/16 07:25:45;;;;;;;;;13.50;13.50;;;;;24.92;32.13;101283.16;5020736;28;45234;-72
2023/06/16 07:28:12;;;;;;;;;16.25;15.50;;;;;25.05;32.82;101298.47;5020711;28;45314;-70
2023/06/16 07:30:37;;;;;;;;;19.50;17.50;;;;;25.08;32.18;101296.47;5020835;28;46121;-70
2023/06/16 07:33:02;;;;;;;;;17.75;17.25;;;;;25.11;32.23;101298.06;5020289;28;45411;-72
2023/06/16 07:35:28;;;;;;;;;14.25;12.75;;;;;25.16;32.57;101301.31;5019038;28;45924;-74
2023/06/16 07:37:53;;;;;;;;;16.00;15.25;;;;;25.19;32.15;101298.41;5014969;28;45416;-74
2023/06/16 07:40:18;;;;;;;;;13.75;13.75;;;;;25.22;32.64;101300.91;5020153;28;50952;-73
2023/06/16 07:42:45;;;;;;;;;17.25;17.25;;;;;25.25;32.08;101306.06;5019881;28;45231;-74
2023/06/16 07:45:11;;;;;;;;;15.75;14.50;;;;;25.29;32.33;101298.66;5020780;28;45277;-72
2023/06/16 07:47:38;;;;;;;;;16.25;16.25;;;;;25.31;32.58;101300.28;5020187;28;45456;-71
2023/06/16 07:50:04;;;;;;;;;16.25;15.25;;;;;25.36;32.40;101300.00;5029490;28;46206;-70
2023/06/16 07:52:30;;;;;;;;;16.25;15.00;;;;;25.39;32.23;101296.25;5017433;28;45468;-70
2023/06/16 07:54:55;;;;;;;;;19.25;15.25;;;;;25.40;32.02;101301.50;5035420;28;45483;-70
2023/06/16 07:57:20;;;;;;;;;16.50;15.50;;;;;25.47;31.94;101307.31;5019860;28;47938;-70
2023/06/16 07:59:46;;;;;;;;;16.50;15.75;;;;;25.51;31.83;101305.28;5020257;28;46146;-70
2023/06/16 08:02:11;;;;;;;;;15.00;15.00;;;;;25.54;32.38;101307.78;5016846;28;47717;-69
2023/06/16 08:04:36;;;;;;;;;20.25;17.75;;;;;25.58;31.82;101309.28;5019772;28;45239;-68
2023/06/16 08:07:02;;;;;;;;;19.00;15.50;;;;;25.61;32.44;101307.25;5019916;28;45589;-70
2023/06/16 08:09:27;;;;;;;;;16.00;14.50;;;;;25.65;32.37;101302.53;5019874;28;45224;-69
2023/06/16 08:11:52;;;;;;;;;16.50;16.50;;;;;25.70;32.38;101304.88;5019702;28;45373;-69
2023/06/16 08:14:18;;;;;;;;;20.00;16.75;;;;;25.74;31.87;101309.09;5020061;28;45217;-69
2023/06/16 08:16:43;;;;;;;;;14.50;14.50;;;;;25.78;32.14;101300.66;5018678;28;45521;-68
2023/06/16 08:19:09;;;;;;;;;17.00;15.25;;;;;25.82;31.74;101297.78;5019649;28;45346;-69
2023/06/16 08:21:34;;;;;;;;;16.75;14.00;;;;;25.85;32.05;101293.06;5019741;28;45360;-69
2023/06/16 08:24:01;;;;;;;;;15.75;15.75;;;;;25.87;31.97;101288.41;5019914;28;45498;-70
2023/06/16 08:26:27;;;;;;;;;18.25;17.00;;;;;25.91;31.97;101287.25;5019429;28;45494;-69
2023/06/16 08:28:53;;;;;;;;;20.25;18.50;;;;;25.97;31.38;101283.22;5019537;28;46316;-68
2023/06/16 08:31:18;;;;;;;;;17.50;16.00;;;;;25.99;31.42;101277.72;5019583;28;45440;-69
2023/06/16 08:33:44;;;;;;;;;16.00;14.75;;;;;26.04;31.99;101284.53;5015100;28;45452;-69
2023/06/16 08:36:09;;;;;;;;;18.75;17.75;;;;;26.08;31.33;101287.91;5015853;28;45734;-68
2023/06/16 08:38:36;;;;;;;;;14.25;13.00;;;;;26.11;31.81;101280.47;5017644;28;46944;-68
2023/06/16 08:41:05;;;;;;;;;16.50;16.00;;;;;26.16;31.79;101279.28;5007868;28;45253;-69
2023/06/16 08:43:35;;;;;;;;;13.00;13.00;;;;;26.19;31.51;101279.91;5019673;28;45455;-71
2023/06/16 08:46:01;;;;;;;;;16.00;16.00;;;;;26.22;31.54;101276.97;5019387;28;45479;-69
2023/06/16 08:48:26;;;;;;;;;14.00;14.00;;;;;26.28;31.30;101281.06;5034951;28;47356;-69
2023/06/16 08:50:56;;;;;;;;;16.50;16.00;;;;;26.32;31.06;101279.03;5017860;28;46299;-69
2023/06/16 08:53:22;;;;;;;;;15.75;15.75;;;;;26.36;31.34;101278.66;5019549;28;45542;-68
2023/06/16 08:55:49;;;;;;;;;16.00;16.00;;;;;26.36;30.90;101264.34;5018461;28;45244;-68
2023/06/16 08:58:16;;;;;;;;;15.50;15.50;;;;;26.46;30.97;101273.47;5019497;28;47209;-69
2023/06/16 09:00:42;;;;;;;;;16.50;15.75;;;;;26.51;30.80;101267.75;5018140;28;45286;-68
2023/06/16 09:03:08;;;;;;;;;15.25;13.25;;;;;26.54;31.09;101262.13;5013651;28;45307;-69
2023/06/16 09:05:34;;;;;;;;;15.50;14.00;;;;;26.58;31.31;101272.59;5022247;28;45470;-69
2023/06/16 09:08:01;;;;;;;;;17.25;16.25;;;;;26.65;30.63;101274.81;5022654;28;45430;-68
2023/06/16 09:10:26;;;;;;;;;12.25;12.25;;;;;26.68;31.38;101267.38;5022299;28;45503;-68
2023/06/16 09:12:52;;;;;;;;;13.25;10.50;;;;;26.73;31.20;101270.63;5023011;28;45701;-69
2023/06/16 09:15:18;;;;;;;;;14.00;12.50;;;;;26.77;31.20;101274.78;5022422;28;45446;-70
2023/06/16 09:17:47;;;;;;;;;12.25;11.50;;;;;26.83;30.68;101278.88;5022696;28;46915;-70
2023/06/16 09:20:16;;;;;;;;;15.00;14.50;;;;;26.87;30.46;101272.28;5022345;28;45319;-69
2023/06/16 09:22:41;;;;;;;;;15.00;12.50;;;;;26.90;30.57;101268.50;5022842;28;45347;-69
2023/06/16 09:25:11;;;;;;;;;14.75;14.00;;;;;26.96;30.42;101273.44;5028947;28;45328;-69
2023/06/16 09:27:46;;;;;;;;;14.00;14.00;;;;;27.03;30.93;101273.81;5022465;28;46166;-71
2023/06/16 09:30:13;;;;;;;;;14.50;14.00;;;;;27.07;30.77;101272.63;5020208;28;45276;-71
2023/06/16 09:32:39;;;;;;;;;13.00;12.75;;;;;27.12;30.48;101267.75;5020936;28;45228;-69
2023/06/16 09:35:17;;;;;;;;;16.00;15.25;;;;;27.18;30.96;101266.41;5020242;28;45494;-69
2023/06/16 09:37:44;;;;;;;;;15.00;14.50;;;;;27.22;29.89;101265.16;5018089;28;46053;-69
2023/06/16 09:40:10;;;;;;;;;13.50;12.50;;;;;27.27;30.27;101257.63;5013120;28;45483;-70
2023/06/16 09:42:40;;;;;;;;;16.75;15.00;;;;;27.31;30.55;101261.78;5021323;28;45604;-69
2023/06/16 09:45:16;;;;;;;;;13.75;13.75;;;;;27.37;29.98;101261.31;5031356;28;46630;-69
2023/06/16 09:47:47;;;;;;;;;12.25;12.25;;;;;27.43;29.78;101260.00;5014434;28;45435;-70
2023/06/16 09:50:16;;;;;;;;;13.00;12.50;;;;;27.47;29.78;101257.91;5021539;28;45447;-70
2023/06/16 09:52:46;;;;;;;;;11.50;11.50;;;;;27.52;29.85;101253.91;5016195;28;45416;-70
2023/06/16 09:55:13;;;;;;;;;10.50;10.50;;;;;27.56;29.48;101255.38;5018824;28;45453;-69
2023/06/16 09:57:41;;;;;;;;;12.00;12.00;;;;;27.63;30.02;101260.28;5019322;28;46914;-69
2023/06/16 10:00:15;;;;;;;;;13.50;13.50;;;;;27.67;29.59;101259.06;5018872;28;45329;-69
2023/06/16 10:02:41;;;;;;;;;13.00;12.75;;;;;27.72;29.68;101255.03;5034629;28;45602;-70
2023/06/16 10:05:09;;;;;;;;;14.00;13.00;;;;;27.80;29.83;101261.63;5021103;28;45553;-70
2023/06/16 10:07:37;;;;;;;;;11.50;11.50;;;;;27.84;29.37;101260.44;5019119;28;45565;-70
2023/06/16 10:10:05;;;;;;;;;12.50;12.00;;;;;27.89;29.14;101263.63;5021009;28;45628;-71
2023/06/16 10:12:36;;;;;;;;;14.75;14.50;;;;;27.96;29.72;101255.88;5021167;28;45288;-70
2023/06/16 10:15:03;;;;;;;;;12.00;11.50;;;;;28.00;29.80;101252.81;5020384;28;45475;-69
2023/06/16 10:17:31;;;;;;;;;13.00;13.00;;;;;28.07;28.89;101252.38;5019994;28;45596;-70
2023/06/16 10:19:56;;;;;;;;;15.75;15.75;;;;;28.12;28.70;101247.44;5021110;28;45233;-70
2023/06/16 10:22:22;;;;;;;;;12.00;12.00;;;;;28.15;28.86;101248.06;5021336;28;45391;-69
2023/06/16 10:24:48;;;;;;;;;13.25;11.25;;;;;28.21;29.33;101250.28;5036263;28;45444;-70
2023/06/16 10:27:15;;;;;;;;;14.00;14.00;;;;;28.31;29.00;101249.50;5020404;28;46306;-70
2023/06/16 10:29:41;;;;;;;;;14.00;14.00;;;;;28.36;28.61;101248.16;5018288;28;45345;-70
2023/06/16 10:32:07;;;;;;;;;14.25;11.75;;;;;28.44;28.93;101242.13;5021050;28;45284;-70
2023/06/16 10:34:47;;;;;;;;;13.00;12.25;;;;;28.53;28.84;101238.66;5021006;28;45263;-70
2023/06/16 10:37:15;;;;;;;;;14.25;14.25;;;;;28.65;28.44;101242.19;5021424;28;46171;-70
2023/06/16 10:39:45;;;;;;;;;15.25;14.50;;;;;28.81;28.93;101244.47;5017257;28;45427;-71
2023/06/16 10:42:12;;;;;;;;;11.50;11.50;;;;;29.03;28.64;101240.84;5021233;28;45226;-70
2023/06/16 10:44:38;;;;;;;;;12.75;11.00;;;;;29.31;29.28;101233.09;5020057;28;45412;-70
2023/06/16 10:47:10;;;;;;;;;10.25;10.25;;;;;29.64;29.13;101241.97;5036595;28;46426;-70
2023/06/16 10:49:50;;;;;;;;;10.75;10.75;;;;;30.02;29.00;101238.75;5020979;28;45250;-72
2023/06/16 10:52:44;;;;;;;;;13.00;13.00;;;;;30.46;28.94;101245.53;5021316;28;46330;-72
2023/06/16 10:55:33;;;;;;;;;13.75;12.25;;;;;30.91;28.96;101243.34;5015357;28;45252;-71
2023/06/16 10:58:23;;;;;;;;;13.25;11.75;;;;;31.37;28.89;101239.06;5017884;28;47115;-70
2023/06/16 11:01:01;;;;;;;;;13.50;11.00;;;;;31.82;29.34;101236.66;5016612;28;45482;-71
2023/06/16 11:03:38;;;;;;;;;14.25;12.25;;;;;32.19;28.98;101231.19;5017313;28;45342;-71
2023/06/16 11:06:04;;;;;;;;;13.00;11.00;;;;;32.57;28.81;101241.97;5017444;28;45452;-71
2023/06/16 11:08:30;;;;;;;;;13.25;12.00;;;;;32.92;28.36;101233.97;5016533;28;46907;-71